Gentio do Ouro, Brazil
Current Conditions -  °F | °C
As of 10:00 PM on Friday 24 Oct 2014 (Local Time) from SBPL Reporting Station
Clear Clear  
Wind Chill: 84°   Ceiling: Unl
Heat Index: 85°   Visibility: 6mi
Dew Point: 63°   Wind: 6mph
Humidity: 48%   Direction: 150°SSE
Pressure: 29.91"   Gusts: NA
Location:  11.43°S, 42.5°W
Report Text: SBPL 250100Z 15005KT CAVOK 29/17 Q1013
Loading
Personal Weather Stations






























Interactive Weather Map
Tropical Storm Tracking
New forecast layout! Learn more

10-Day Weather Forecast

Advertisements
Track Severe Weather on mobile